Time;durP1;ratioP1;P1;durP2;ratioP2;P2;SDS_P1;SDS_P2;PMS_P1;PMS_P2;Temp;Humidity;BMP_temperature;BMP_pressure;BME280_temperature;BME280_humidity;BME280_pressure;Samples;Min_cycle;Max_cycle;Signal;HPM_P1;HPM_P2
2023/07/22 00:09:26;;;;;;;8.60;3.97;;;;;;;26.59;49.45;100772.16;20983286;28;20045;-75
2023/07/22 00:19:50;;;;;;;8.68;4.30;;;;;;;26.50;49.90;100762.69;20919130;28;20106;-74
2023/07/22 00:30:14;;;;;;;9.68;4.07;;;;;;;26.44;51.90;100771.13;20908747;28;20049;-74
2023/07/22 00:40:39;;;;;;;7.78;4.30;;;;;;;26.40;52.04;100763.22;20888734;28;20410;-74
2023/07/22 00:51:02;;;;;;;7.35;3.72;;;;;;;26.24;54.36;100770.31;20899325;28;20567;-74
2023/07/22 01:01:26;;;;;;;8.85;3.92;;;;;;;26.19;54.35;100774.09;20900571;28;20052;-73
2023/07/22 01:11:49;;;;;;;9.82;5.00;;;;;;;26.11;54.63;100779.03;20873703;28;20048;-75
2023/07/22 01:21:54;;;;;;;6.05;3.78;;;;;;;26.02;54.19;100774.06;20926056;28;20143;-74
2023/07/22 01:32:19;;;;;;;8.13;4.30;;;;;;;25.92;54.76;100774.59;20947304;28;20053;-74
2023/07/22 01:42:43;;;;;;;10.45;4.30;;;;;;;25.87;55.64;100777.50;20908372;28;20060;-74
2023/07/22 01:53:07;;;;;;;7.38;4.20;;;;;;;25.88;54.94;100778.38;20879027;28;20051;-74
2023/07/22 02:03:30;;;;;;;9.73;4.68;;;;;;;25.94;56.19;100776.25;20882547;28;20139;-74
2023/07/22 02:13:55;;;;;;;10.60;4.90;;;;;;;25.82;55.87;100782.25;20879676;28;20497;-74
2023/07/22 02:24:18;;;;;;;9.73;5.18;;;;;;;25.66;56.94;100784.81;20898439;28;20095;-75
2023/07/22 02:34:43;;;;;;;12.90;4.85;;;;;;;25.64;58.60;100781.28;20884601;28;20069;-74
2023/07/22 02:45:07;;;;;;;8.70;4.80;;;;;;;25.43;56.94;100803.84;20882514;28;20495;-74
2023/07/22 02:55:32;;;;;;;9.23;5.07;;;;;;;25.52;56.57;100806.16;20891058;28;20084;-74
2023/07/22 03:05:51;;;;;;;11.95;4.93;;;;;;;25.45;57.50;100809.19;20914091;28;20802;-75
2023/07/22 03:16:16;;;;;;;8.65;4.80;;;;;;;25.38;57.86;100812.19;20901130;28;20045;-74
2023/07/22 03:26:40;;;;;;;7.70;4.30;;;;;;;25.39;58.02;100824.75;20993417;28;20230;-74
2023/07/22 03:37:04;;;;;;;12.52;5.05;;;;;;;25.48;57.58;100826.16;20900710;28;20060;-75
2023/07/22 03:47:27;;;;;;;13.10;5.32;;;;;;;25.57;58.18;100832.97;20904054;28;20183;-75
2023/07/22 03:57:34;;;;;;;10.05;4.95;;;;;;;25.85;59.56;100847.03;20904624;28;20527;-74
2023/07/22 04:07:57;;;;;;;10.90;5.00;;;;;;;26.16;61.08;100868.13;20890741;28;20107;-74
2023/07/22 04:18:22;;;;;;;11.15;4.88;;;;;;;26.66;63.37;100875.66;20873159;28;20052;-75
2023/07/22 04:28:45;;;;;;;10.93;4.22;;;;;;;27.21;65.23;100881.94;20902435;28;20041;-74
2023/07/22 04:39:09;;;;;;;14.88;5.07;;;;;;;27.77;67.24;100890.72;20864094;28;20612;-75
2023/07/22 04:49:32;;;;;;;14.68;4.55;;;;;;;28.30;68.07;100889.66;20883253;28;20041;-75
2023/07/22 04:59:57;;;;;;;9.07;4.22;;;;;;;29.05;66.06;100890.81;20894684;28;20052;-76
2023/07/22 05:10:20;;;;;;;10.27;4.20;;;;;;;29.76;58.82;100891.06;20943616;28;20421;-76
2023/07/22 05:20:44;;;;;;;11.55;4.35;;;;;;;30.44;56.78;100900.34;20880507;28;20052;-76
2023/07/22 05:31:07;;;;;;;8.93;5.05;;;;;;;31.20;54.58;100907.09;20988795;28;20048;-76
2023/07/22 05:41:34;;;;;;;8.95;3.30;;;;;;;32.16;46.53;100911.34;20961848;28;20076;-76
2023/07/22 05:51:56;;;;;;;6.40;3.60;;;;;;;33.28;44.02;100912.16;20961680;28;20090;-76
2023/07/22 06:02:21;;;;;;;10.73;3.55;;;;;;;34.37;37.96;100900.72;20978967;28;20051;-77
2023/07/22 06:12:43;;;;;;;8.77;4.13;;;;;;;35.27;34.66;100901.44;20941818;28;20062;-76
2023/07/22 06:23:08;;;;;;;8.05;3.88;;;;;;;36.03;32.16;100898.41;20966629;28;20072;-76
2023/07/22 06:33:30;;;;;;;6.53;3.80;;;;;;;36.69;31.40;100901.63;20975887;28;20264;-76
2023/07/22 06:43:55;;;;;;;6.70;3.85;;;;;;;37.48;30.79;100914.34;20951830;28;20045;-77
2023/07/22 06:54:17;;;;;;;8.18;3.28;;;;;;;37.58;29.97;100908.00;20980158;28;20052;-77
2023/07/22 07:04:41;;;;;;;7.95;3.72;;;;;;;38.01;29.51;100907.50;20981743;28;20730;-77
2023/07/22 07:15:04;;;;;;;7.93;3.83;;;;;;;38.31;28.66;100917.44;20899977;28;20106;-76
2023/07/22 07:25:29;;;;;;;8.07;3.63;;;;;;;38.53;28.32;100909.66;20896797;28;20072;-76
2023/07/22 07:35:51;;;;;;;7.72;3.88;;;;;;;38.35;27.51;100911.44;20885068;28;20501;-76
2023/07/22 07:46:20;;;;;;;7.47;3.85;;;;;;;38.78;27.24;100913.59;20910145;28;20045;-76
2023/07/22 07:56:42;;;;;;;7.90;4.50;;;;;;;39.33;26.91;100913.50;20899834;28;20059;-78
2023/07/22 08:07:08;;;;;;;10.90;4.25;;;;;;;39.42;26.77;100912.59;20875629;28;20068;-77
2023/07/22 08:17:11;;;;;;;8.98;4.07;;;;;;;39.40;26.81;100918.28;20888381;28;20098;-83
2023/07/22 08:27:35;;;;;;;6.85;4.22;;;;;;;39.66;26.88;100915.56;20893548;28;20374;-81
2023/07/22 08:37:57;;;;;;;8.77;4.03;;;;;;;39.89;26.99;100921.50;20891076;28;20045;-80
2023/07/22 08:48:25;;;;;;;8.25;4.07;;;;;;;40.16;26.16;100904.72;20870583;28;20045;-80
2023/07/22 08:58:50;;;;;;;8.32;4.13;;;;;;;40.28;25.91;100897.03;20902777;28;21247;-79
2023/07/22 09:09:15;;;;;;;10.48;4.53;;;;;;;40.58;25.71;100895.59;20911986;28;20072;-77
2023/07/22 09:19:34;;;;;;;8.25;4.25;;;;;;;40.94;25.53;100899.06;20913424;28;20049;-78
2023/07/22 09:29:57;;;;;;;8.30;4.43;;;;;;;41.21;25.33;100895.16;20901731;28;20049;-80
2023/07/22 09:40:21;;;;;;;10.35;4.13;;;;;;;41.30;24.72;100894.97;20920295;28;20107;-79
2023/07/22 09:50:46;;;;;;;10.05;4.60;;;;;;;41.62;24.61;100891.38;20912517;28;20041;-78
2023/07/22 10:01:09;;;;;;;6.18;3.88;;;;;;;41.85;24.61;100890.66;20914731;28;20409;-81
2023/07/22 10:11:14;;;;;;;6.70;3.75;;;;;;;42.02;24.42;100889.59;20902906;28;20053;-79
2023/07/22 10:21:39;;;;;;;9.15;3.63;;;;;;;42.21;23.65;100880.88;20915166;28;20242;-79
2023/07/22 10:32:04;;;;;;;7.32;3.92;;;;;;;41.84;nan;100880.59;20904103;28;20551;-79
2023/07/22 10:42:27;;;;;;;8.30;4.50;;;;;;;41.57;23.86;100882.72;20949906;28;20041;-80
2023/07/22 10:52:51;;;;;;;11.82;4.47;;;;;;;41.57;24.12;100877.16;20971666;28;20048;-80
2023/07/22 11:03:15;;;;;;;6.70;4.07;;;;;;;41.70;24.39;100879.41;20974487;28;20075;-79
2023/07/22 11:13:35;;;;;;;7.78;4.22;;;;;;;41.76;24.64;100879.56;20906678;28;20057;-80
2023/07/22 11:23:58;;;;;;;10.30;4.47;;;;;;;42.10;24.73;100893.25;20952828;28;20059;-81
2023/07/22 11:34:24;;;;;;;8.02;3.85;;;;;;;41.65;24.23;100881.84;20906272;28;20128;-81
2023/07/22 11:44:29;;;;;;;7.63;4.30;;;;;;;41.56;24.60;100878.19;20912681;28;20045;-80
2023/07/22 11:54:53;;;;;;;8.25;4.20;;;;;;;41.00;25.00;100878.97;20895769;28;20071;-78
2023/07/22 12:05:22;;;;;;;7.47;3.75;;;;;;;40.73;25.07;100877.34;20900023;28;20041;-79
2023/07/22 12:16:00;;;;;;;8.65;3.92;;;;;;;40.56;24.71;100881.09;20893858;28;20080;-79
2023/07/22 12:26:23;;;;;;;7.35;3.90;;;;;;;40.68;24.92;100876.13;20897952;28;20098;-80
2023/07/22 12:36:47;;;;;;;8.43;4.18;;;;;;;40.82;24.39;100879.13;20901061;28;20048;-80
2023/07/22 12:46:53;;;;;;;9.73;4.35;;;;;;;40.87;24.17;100868.38;20904738;28;20045;-79
2023/07/22 12:57:17;;;;;;;8.15;4.13;;;;;;;41.07;24.06;100866.22;20887857;28;20056;-78
2023/07/22 13:07:39;;;;;;;7.65;3.65;;;;;;;40.92;24.15;100865.97;20895494;28;20041;-80
2023/07/22 13:18:03;;;;;;;8.98;4.15;;;;;;;41.02;24.39;100857.50;20919840;28;20126;-80
2023/07/22 13:28:18;;;;;;;9.82;4.00;;;;;;;40.96;24.24;100842.41;20896578;28;20528;-80
2023/07/22 13:38:42;;;;;;;9.57;4.07;;;;;;;40.51;24.20;100842.78;20945655;28;20696;-80
2023/07/22 13:49:04;;;;;;;;;;;;;;;40.29;24.08;100837.00;20903675;28;20083;-80
2023/07/22 13:59:28;;;;;;;8.07;3.78;;;;;;;40.14;24.64;100828.44;20904607;28;19920;-80
2023/07/22 14:09:51;;;;;;;11.10;4.33;;;;;;;40.16;24.84;100827.25;20887477;28;20075;-79
2023/07/22 14:19:56;;;;;;;9.45;4.55;;;;;;;39.97;25.57;100819.19;20891792;28;20139;-79
2023/07/22 14:29:59;;;;;;;9.82;4.40;;;;;;;39.95;25.68;100810.19;20891047;28;20467;-80
2023/07/22 14:40:23;;;;;;;9.15;4.22;;;;;;;39.88;25.89;100798.03;20900997;28;20056;-78
2023/07/22 14:50:45;;;;;;;;;;;;;;;39.68;25.86;100794.59;20898405;28;20068;-78
2023/07/22 15:01:10;;;;;;;9.05;3.58;;;;;;;39.44;25.83;100789.81;20883833;28;19920;-77
2023/07/22 15:11:32;;;;;;;;;;;;;;;38.82;26.21;100776.06;20888923;28;20064;-78
2023/07/22 15:21:56;;;;;;;13.38;4.50;;;;;;;38.20;26.78;100783.31;20901166;28;19924;-79
2023/07/22 15:32:18;;;;;;;11.43;4.60;;;;;;;37.19;28.76;100777.63;20892667;28;20045;-75
2023/07/22 15:42:31;;;;;;;11.00;4.68;;;;;;;36.53;29.39;100780.19;20923022;28;20103;-75
2023/07/22 15:52:54;;;;;;;12.10;4.53;;;;;;;36.08;29.83;100783.38;20901678;28;20049;-76
2023/07/22 16:02:58;;;;;;;8.98;5.03;;;;;;;35.76;30.50;100793.66;20899276;28;20552;-74
2023/07/22 16:13:20;;;;;;;6.82;4.63;;;;;;;35.41;31.05;100799.50;20884680;28;20157;-75
2023/07/22 16:23:44;;;;;;;13.20;4.88;;;;;;;35.07;31.74;100807.00;20896644;28;20048;-76
2023/07/22 16:34:06;;;;;;;13.00;4.55;;;;;;;34.81;32.46;100811.13;20880305;28;20053;-75
2023/07/22 16:44:30;;;;;;;8.93;4.75;;;;;;;34.54;32.87;100826.13;20909992;28;20107;-75
2023/07/22 16:54:33;;;;;;;11.85;4.97;;;;;;;34.31;32.98;100827.19;20867743;28;20052;-74
2023/07/22 17:04:57;;;;;;;9.82;4.40;;;;;;;33.98;33.66;100842.63;20882381;28;20199;-74
2023/07/22 17:15:19;;;;;;;11.00;4.80;;;;;;;33.65;34.27;100839.81;20884845;28;20178;-75
2023/07/22 17:25:43;;;;;;;12.35;5.40;;;;;;;33.42;34.29;100844.34;20900848;28;20056;-74
2023/07/22 17:36:06;;;;;;;10.82;5.00;;;;;;;33.18;34.87;100849.84;20904440;28;20048;-74
2023/07/22 17:46:23;;;;;;;9.68;5.07;;;;;;;32.93;35.09;100850.00;20894836;28;20056;-75
2023/07/22 17:56:45;;;;;;;8.07;5.28;;;;;;;32.75;35.70;100851.41;20895388;28;20065;-75
2023/07/22 18:06:49;;;;;;;12.82;5.60;;;;;;;32.60;36.40;100871.66;20891926;28;20045;-74
2023/07/22 18:17:11;;;;;;;9.80;4.78;;;;;;;32.44;36.12;100874.63;20889122;28;20080;-73
2023/07/22 18:27:36;;;;;;;12.30;5.28;;;;;;;32.33;36.22;100878.16;20872423;28;20053;-73
2023/07/22 18:37:45;;;;;;;8.27;4.35;;;;;;;32.25;35.98;100879.72;20814734;28;20107;-73
2023/07/22 18:48:09;;;;;;;9.38;4.38;;;;;;;32.13;36.23;100881.44;20836977;28;20049;-74
2023/07/22 18:58:32;;;;;;;11.07;5.05;;;;;;;32.04;36.58;100898.50;20926542;28;20045;-73
2023/07/22 19:08:56;;;;;;;11.10;5.50;;;;;;;31.88;36.86;100900.59;20911972;28;20049;-73
2023/07/22 19:19:19;;;;;;;11.45;4.35;;;;;;;31.82;37.08;100910.09;20897786;28;20057;-73
2023/07/22 19:29:43;;;;;;;12.90;5.05;;;;;;;31.70;37.31;100910.09;20910521;28;20076;-74
2023/07/22 19:39:47;;;;;;;8.13;4.68;;;;;;;31.58;37.34;100906.28;20910430;28;20107;-73
2023/07/22 19:50:11;;;;;;;11.63;5.63;;;;;;;31.45;37.82;100900.81;20895938;28;20069;-73
2023/07/22 20:00:37;;;;;;;13.48;7.30;;;;;;;31.29;38.16;100881.03;20906618;28;20375;-73
2023/07/22 20:11:01;;;;;;;11.05;6.40;;;;;;;31.00;39.41;100890.28;20886691;28;20439;-74
2023/07/22 20:21:23;;;;;;;9.85;4.82;;;;;;;30.92;39.61;100889.94;20893625;28;20053;-74
2023/07/22 20:31:48;;;;;;;9.60;4.60;;;;;;;30.84;39.53;100890.47;20905049;28;20037;-73
2023/07/22 20:41:58;;;;;;;8.35;4.20;;;;;;;30.86;39.74;100886.63;20906154;28;20147;-73
2023/07/22 20:52:22;;;;;;;10.38;4.88;;;;;;;30.80;39.82;100883.44;20903223;28;20128;-73
2023/07/22 21:02:45;;;;;;;10.45;5.13;;;;;;;30.79;39.80;100881.69;20901640;28;20049;-74
2023/07/22 21:12:50;;;;;;;13.07;4.68;;;;;;;30.78;39.64;100855.41;20897891;28;20107;-73
2023/07/22 21:23:12;;;;;;;15.50;4.60;;;;;;;30.70;39.74;100863.22;20881842;28;20056;-73
2023/07/22 21:33:18;;;;;;;11.93;4.47;;;;;;;30.61;39.38;100867.44;20901111;28;20587;-74
2023/07/22 21:43:41;;;;;;;10.13;4.15;;;;;;;30.55;39.35;100864.22;20900039;28;20486;-73
2023/07/22 21:54:05;;;;;;;13.13;4.28;;;;;;;30.60;38.86;100867.53;20883097;28;20080;-73
2023/07/22 22:04:28;;;;;;;11.27;4.50;;;;;;;30.64;38.79;100858.19;20921208;28;20417;-73
2023/07/22 22:14:47;;;;;;;9.80;4.95;;;;;;;30.70;38.62;100845.03;20929861;28;20136;-74
2023/07/22 22:25:00;;;;;;;13.20;4.38;;;;;;;30.55;38.50;100839.69;20936951;28;20044;-73
2023/07/22 22:35:25;;;;;;;12.32;5.10;;;;;;;30.56;38.50;100830.56;20953263;28;20075;-73
2023/07/22 22:45:33;;;;;;;10.60;4.75;;;;;;;30.73;38.52;100812.09;20935975;28;20048;-73
2023/07/22 22:55:38;;;;;;;12.25;5.10;;;;;;;30.72;38.87;100829.41;20898349;28;20091;-73
2023/07/22 23:06:00;;;;;;;11.40;4.72;;;;;;;30.70;39.14;100838.69;20919012;28;20103;-74
2023/07/22 23:16:24;;;;;;;11.65;4.68;;;;;;;30.69;38.96;100839.66;20892933;28;20057;-73
2023/07/22 23:26:47;;;;;;;9.63;4.38;;;;;;;30.67;39.20;100836.16;20909004;28;20483;-74
2023/07/22 23:37:06;;;;;;;9.10;5.28;;;;;;;30.55;39.99;100843.31;20877362;28;20288;-73
2023/07/22 23:47:29;;;;;;;10.07;4.95;;;;;;;30.52;40.16;100838.06;20908671;28;20049;-74
2023/07/22 23:57:38;;;;;;;12.25;5.45;;;;;;;30.45;40.14;100842.16;20941595;28;20483;-73
